Time;durP1;ratioP1;P1;durP2;ratioP2;P2;SDS_P1;SDS_P2;PMS_P1;PMS_P2;Temp;Humidity;BMP_temperature;BMP_pressure;BME280_temperature;BME280_humidity;BME280_pressure;Samples;Min_cycle;Max_cycle;Signal;HPM_P1;HPM_P2
2020/12/20 00:01:40;;;;;;;8.83;7.93;;;8.30;96.80;;;;;;4974654;28;20472;-94
2020/12/20 00:04:07;;;;;;;9.07;8.17;;;8.30;97.00;;;;;;4975260;28;20460;-95
2020/12/20 00:06:38;;;;;;;9.73;8.73;;;8.30;97.10;;;;;;4979742;28;20450;-95
2020/12/20 00:09:08;;;;;;;9.33;8.30;;;8.30;97.10;;;;;;4982473;28;20456;-95
2020/12/20 00:11:38;;;;;;;10.17;9.00;;;8.30;97.10;;;;;;4980714;28;20523;-94
2020/12/20 00:14:26;;;;;;;9.77;7.90;;;8.30;96.90;;;;;;4977206;28;20447;-93
2020/12/20 00:16:53;;;;;;;9.67;8.60;;;8.40;96.70;;;;;;4974794;28;20454;-95
2020/12/20 00:19:55;;;;;;;9.37;8.47;;;8.30;96.60;;;;;;4974667;28;20483;-95
2020/12/20 00:22:22;;;;;;;9.20;7.73;;;8.30;96.90;;;;;;4975208;28;20439;-94
2020/12/20 00:24:48;;;;;;;11.17;9.47;;;8.30;96.90;;;;;;4974565;28;20456;-95
2020/12/20 00:27:15;;;;;;;11.67;8.93;;;8.40;96.90;;;;;;4974752;28;20459;-95
2020/12/20 00:29:42;;;;;;;10.40;9.30;;;8.30;96.90;;;;;;4974217;28;20451;-95
2020/12/20 00:32:12;;;;;;;10.00;9.00;;;8.30;97.20;;;;;;4974296;28;20464;-95
2020/12/20 00:34:39;;;;;;;9.30;8.10;;;8.30;97.20;;;;;;4974662;28;20444;-94
2020/12/20 00:37:06;;;;;;;8.80;8.00;;;8.20;97.10;;;;;;4974187;28;20432;-95
2020/12/20 00:39:33;;;;;;;9.53;8.37;;;8.20;97.20;;;;;;4974284;28;20480;-94
2020/12/20 00:42:00;;;;;;;8.67;7.77;;;8.20;97.40;;;;;;4973914;28;20476;-96
2020/12/20 00:44:27;;;;;;;9.40;7.80;;;8.20;97.50;;;;;;4974389;28;20436;-95
2020/12/20 00:46:58;;;;;;;9.13;8.33;;;8.10;97.60;;;;;;4974225;28;20451;-95
2020/12/20 00:49:26;;;;;;;9.27;8.07;;;8.10;97.80;;;;;;4974174;28;20805;-95
2020/12/20 00:51:56;;;;;;;9.43;8.53;;;8.10;97.80;;;;;;4974139;28;20507;-95
2020/12/20 00:54:22;;;;;;;9.63;8.63;;;8.10;97.80;;;;;;4974823;28;20468;-95
2020/12/20 00:56:49;;;;;;;9.73;8.73;;;8.10;97.90;;;;;;4978714;28;20509;-94
2020/12/20 00:59:15;;;;;;;10.40;9.40;;;8.00;98.00;;;;;;4985209;28;20471;-94
2020/12/20 01:01:41;;;;;;;10.53;8.30;;;8.00;98.20;;;;;;4997207;28;20473;-95
2020/12/20 01:04:08;;;;;;;8.80;8.00;;;8.10;98.30;;;;;;4973809;28;20464;-94
2020/12/20 01:06:35;;;;;;;10.33;9.40;;;8.10;98.20;;;;;;4973912;28;20432;-96
2020/12/20 01:09:02;;;;;;;8.90;8.10;;;8.10;98.40;;;;;;4973908;28;20495;-95
2020/12/20 01:11:29;;;;;;;9.07;8.13;;;8.10;98.40;;;;;;4973769;28;21019;-94
2020/12/20 01:13:56;;;;;;;9.40;8.50;;;8.00;98.60;;;;;;4974090;28;20448;-95
2020/12/20 01:16:24;;;;;;;10.07;9.17;;;8.00;98.70;;;;;;4973895;28;20961;-96
2020/12/20 01:18:50;;;;;;;11.63;9.93;;;8.10;98.50;;;;;;4974025;28;20464;-95
2020/12/20 01:21:17;;;;;;;9.70;8.70;;;8.20;98.30;;;;;;4975828;28;20840;-95
2020/12/20 01:23:44;;;;;;;10.97;8.30;;;8.10;98.40;;;;;;4980085;28;20432;-94
2020/12/20 01:26:11;;;;;;;9.90;8.97;;;8.10;98.70;;;;;;4980960;28;20941;-94
2020/12/20 01:28:37;;;;;;;9.87;8.90;;;8.10;98.50;;;;;;4973801;28;20445;-95
2020/12/20 01:31:04;;;;;;;10.60;9.10;;;8.10;98.50;;;;;;4973822;28;20479;-96
2020/12/20 01:33:31;;;;;;;9.30;8.40;;;8.10;98.30;;;;;;4973949;28;20440;-95
2020/12/20 01:35:57;;;;;;;11.97;8.30;;;8.00;98.60;;;;;;4973678;28;20456;-94
2020/12/20 01:38:23;;;;;;;9.00;8.20;;;8.00;98.80;;;;;;4973706;28;20440;-94
2020/12/20 01:40:54;;;;;;;11.27;10.10;;;8.00;98.70;;;;;;4973325;28;20837;-95
2020/12/20 01:43:20;;;;;;;9.20;8.30;;;8.00;98.60;;;;;;4973489;28;20463;-94
2020/12/20 01:45:47;;;;;;;10.43;9.43;;;8.00;98.70;;;;;;4973182;28;20790;-95
2020/12/20 01:48:14;;;;;;;9.37;8.50;;;8.00;98.80;;;;;;4973656;28;20436;-95
2020/12/20 01:50:43;;;;;;;10.10;8.43;;;7.90;99.00;;;;;;4973620;28;21014;-95
2020/12/20 01:53:11;;;;;;;10.30;9.23;;;7.90;99.10;;;;;;4973417;28;20436;-95
2020/12/20 01:55:40;;;;;;;10.37;9.37;;;7.90;99.10;;;;;;4972989;28;20527;-95
2020/12/20 01:58:08;;;;;;;9.17;8.27;;;7.90;99.10;;;;;;4973521;28;20456;-96
2020/12/20 02:00:34;;;;;;;9.90;9.07;;;8.00;99.10;;;;;;4973226;28;20484;-95
2020/12/20 02:03:00;;;;;;;9.50;8.50;;;8.00;98.90;;;;;;4973541;28;20443;-95
2020/12/20 02:05:27;;;;;;;9.27;8.40;;;8.00;98.90;;;;;;4973041;28;20945;-95
2020/12/20 02:07:53;;;;;;;8.67;7.97;;;8.00;98.90;;;;;;4973442;28;20949;-96
2020/12/20 02:10:19;;;;;;;9.80;8.83;;;8.10;98.80;;;;;;4973474;28;21009;-95
2020/12/20 02:12:45;;;;;;;9.77;8.87;;;8.00;98.40;;;;;;4973240;28;20448;-95
2020/12/20 02:15:13;;;;;;;8.10;7.40;;;8.10;98.40;;;;;;4974850;28;20808;-95
2020/12/20 02:17:39;;;;;;;9.13;8.33;;;8.10;98.20;;;;;;4977090;28;20435;-94
2020/12/20 02:20:06;;;;;;;10.57;8.60;;;8.10;98.20;;;;;;4977233;28;20992;-94
2020/12/20 02:22:33;;;;;;;8.67;7.87;;;8.10;98.50;;;;;;4976887;28;20444;-94
2020/12/20 02:24:59;;;;;;;9.57;8.67;;;8.00;98.50;;;;;;4976660;28;20455;-95
2020/12/20 02:27:26;;;;;;;10.20;9.13;;;8.00;98.70;;;;;;4976676;28;20459;-95
2020/12/20 02:29:52;;;;;;;9.27;8.30;;;8.00;98.80;;;;;;4976335;28;20488;-95
2020/12/20 02:32:18;;;;;;;9.20;8.20;;;8.00;99.00;;;;;;4976493;28;20781;-94
2020/12/20 02:34:45;;;;;;;8.50;7.60;;;8.10;98.80;;;;;;4976530;28;20456;-95
2020/12/20 02:37:11;;;;;;;8.70;7.80;;;8.00;98.90;;;;;;4977190;28;20448;-95
2020/12/20 02:39:41;;;;;;;10.30;8.80;;;8.10;98.80;;;;;;4977473;28;20482;-96
2020/12/20 02:42:07;;;;;;;10.20;9.10;;;8.00;98.70;;;;;;4979021;28;20451;-96
2020/12/20 02:44:33;;;;;;;9.40;8.43;;;8.10;98.90;;;;;;4976529;28;20454;-95
2020/12/20 02:46:59;;;;;;;9.97;9.03;;;8.00;98.90;;;;;;4976475;28;20460;-96
2020/12/20 02:49:26;;;;;;;9.00;8.20;;;8.00;98.90;;;;;;4976320;28;20465;-93
2020/12/20 02:51:52;;;;;;;9.80;9.00;;;8.00;99.10;;;;;;4976488;28;20479;-94
2020/12/20 02:54:18;;;;;;;9.53;8.73;;;8.10;99.00;;;;;;4975756;28;20988;-94
2020/12/20 02:56:46;;;;;;;9.63;8.33;;;8.00;98.80;;;;;;4975817;28;20464;-94
2020/12/20 02:59:12;;;;;;;9.10;8.20;;;8.00;98.90;;;;;;4975890;28;20482;-95
2020/12/20 03:01:38;;;;;;;12.23;11.00;;;8.00;98.80;;;;;;4975878;28;20475;-94
2020/12/20 03:04:05;;;;;;;9.53;8.63;;;8.00;98.90;;;;;;4976427;28;20468;-93
2020/12/20 03:06:31;;;;;;;8.20;7.50;;;8.00;98.90;;;;;;4976041;28;20483;-94
2020/12/20 03:08:57;;;;;;;9.60;8.60;;;8.00;98.90;;;;;;4976667;28;20493;-94
2020/12/20 03:11:23;;;;;;;10.27;9.00;;;8.00;99.00;;;;;;4978944;28;20471;-93
2020/12/20 03:13:50;;;;;;;8.90;7.90;;;8.00;99.00;;;;;;4983055;28;20439;-94
2020/12/20 03:16:17;;;;;;;9.23;8.30;;;8.00;99.10;;;;;;4999731;28;20448;-94
2020/12/20 03:18:43;;;;;;;9.90;9.03;;;8.00;99.00;;;;;;4987810;28;20452;-92
2020/12/20 03:21:09;;;;;;;9.30;8.50;;;8.00;99.00;;;;;;4977287;28;20480;-94
2020/12/20 03:23:35;;;;;;;9.20;8.40;;;8.00;99.00;;;;;;4975899;28;20454;-94
2020/12/20 03:26:01;;;;;;;9.60;8.70;;;8.00;99.10;;;;;;4974789;28;20796;-94
2020/12/20 03:28:27;;;;;;;9.53;8.73;;;8.00;99.20;;;;;;4975622;28;20459;-95
2020/12/20 03:30:55;;;;;;;8.20;7.50;;;8.00;99.10;;;;;;4975288;28;21035;-93
2020/12/20 03:33:21;;;;;;;10.17;8.43;;;7.90;99.50;;;;;;4975353;28;20811;-94
2020/12/20 03:35:47;;;;;;;8.23;7.53;;;7.90;99.20;;;;;;4975153;28;20452;-93
2020/12/20 03:38:13;;;;;;;8.93;8.07;;;8.00;99.20;;;;;;4975407;28;21062;-95
2020/12/20 03:40:39;;;;;;;7.73;7.00;;;8.00;98.90;;;;;;4975150;28;20484;-94
2020/12/20 03:43:06;;;;;;;8.50;7.60;;;8.00;98.90;;;;;;4975254;28;20459;-94
2020/12/20 03:45:32;;;;;;;8.80;8.00;;;8.00;98.90;;;;;;4974948;28;20456;-94
2020/12/20 03:47:59;;;;;;;10.10;9.10;;;8.00;99.00;;;;;;4955915;29;20452;-94
2020/12/20 03:50:25;;;;;;;8.60;7.80;;;8.00;98.90;;;;;;4955838;28;20473;-93
2020/12/20 03:52:52;;;;;;;12.97;8.80;;;8.00;98.90;;;;;;4975903;28;20449;-94
2020/12/20 03:55:18;;;;;;;9.70;8.67;;;8.10;98.80;;;;;;4975834;28;20874;-93
2020/12/20 03:57:44;;;;;;;9.23;8.40;;;8.10;98.80;;;;;;4976822;28;20491;-94
2020/12/20 04:00:10;;;;;;;9.80;8.20;;;8.10;98.70;;;;;;4974599;28;21012;-94
2020/12/20 04:02:36;;;;;;;8.37;7.50;;;8.10;98.80;;;;;;4974849;28;20872;-94
2020/12/20 04:05:03;;;;;;;9.07;8.23;;;8.10;98.80;;;;;;4974592;28;20502;-94
2020/12/20 04:07:30;;;;;;;8.60;7.77;;;8.00;99.10;;;;;;4974605;28;20515;-93
2020/12/20 04:09:56;;;;;;;10.30;8.67;;;8.00;99.20;;;;;;4974893;28;20456;-95
2020/12/20 04:12:22;;;;;;;8.87;7.97;;;8.00;99.40;;;;;;4975458;28;20879;-95
2020/12/20 04:14:48;;;;;;;10.17;8.87;;;8.00;99.40;;;;;;4975008;28;20463;-94
2020/12/20 04:17:14;;;;;;;9.40;8.40;;;7.90;99.60;;;;;;4974562;28;20460;-93
2020/12/20 04:19:40;;;;;;;11.13;8.80;;;7.90;99.70;;;;;;4974650;28;20476;-94
2020/12/20 04:22:07;;;;;;;11.93;8.77;;;7.90;99.80;;;;;;4974560;28;20471;-93
2020/12/20 04:24:34;;;;;;;10.93;9.00;;;7.80;99.90;;;;;;4974543;28;20519;-94
2020/12/20 04:27:00;;;;;;;10.70;8.10;;;7.70;99.90;;;;;;4974545;28;20972;-94
2020/12/20 04:29:26;;;;;;;10.30;9.37;;;7.70;99.90;;;;;;4974987;28;20444;-93
2020/12/20 04:31:52;;;;;;;9.37;8.47;;;7.70;99.90;;;;;;4974284;28;20460;-94
2020/12/20 04:34:18;;;;;;;9.33;8.43;;;7.70;99.90;;;;;;4974371;28;20468;-94
2020/12/20 04:36:45;;;;;;;8.17;7.37;;;7.70;99.80;;;;;;4974050;28;20806;-96
2020/12/20 04:39:12;;;;;;;9.10;8.30;;;7.70;99.90;;;;;;4973158;28;20440;-94
2020/12/20 04:41:38;;;;;;;8.43;7.60;;;7.70;99.90;;;;;;4974164;28;20476;-94
2020/12/20 04:44:04;;;;;;;11.40;10.03;;;7.80;99.90;;;;;;4974111;28;20495;-93
2020/12/20 04:46:32;;;;;;;10.77;9.77;;;7.80;99.90;;;;;;4974061;28;20455;-93
2020/12/20 04:49:01;;;;;;;9.67;8.77;;;7.80;99.90;;;;;;4974283;28;21024;-94
2020/12/20 04:51:28;;;;;;;9.53;8.57;;;7.80;99.90;;;;;;4974211;28;20562;-94
2020/12/20 04:53:58;;;;;;;11.60;9.27;;;7.80;99.90;;;;;;4974106;28;20868;-94
2020/12/20 04:56:28;;;;;;;10.00;8.70;;;7.80;99.90;;;;;;4974474;28;20547;-93
2020/12/20 04:58:55;;;;;;;9.87;8.67;;;7.90;99.90;;;;;;4974807;28;20476;-93
2020/12/20 05:01:22;;;;;;;11.07;8.00;;;7.80;99.90;;;;;;4975314;28;20463;-94
2020/12/20 05:03:48;;;;;;;9.37;8.20;;;7.80;99.90;;;;;;4974314;28;20506;-94
2020/12/20 05:06:15;;;;;;;9.80;8.47;;;7.90;99.90;;;;;;4974097;28;20479;-93
2020/12/20 05:08:42;;;;;;;9.70;8.43;;;7.80;99.90;;;;;;4974704;28;20483;-94
2020/12/20 05:11:08;;;;;;;9.87;8.90;;;7.70;99.90;;;;;;4979098;28;20472;-93
2020/12/20 05:13:42;;;;;;;10.17;9.07;;;7.80;99.90;;;;;;4984880;28;20474;-93
2020/12/20 05:16:34;;;;;;;10.13;9.13;;;7.80;99.90;;;;;;4975641;28;20443;-94
2020/12/20 05:19:02;;;;;;;8.70;7.90;;;7.80;99.90;;;;;;4974091;28;21008;-95
2020/12/20 05:21:29;;;;;;;10.23;8.53;;;7.80;99.90;;;;;;4973881;28;21000;-94
2020/12/20 05:23:57;;;;;;;8.73;7.93;;;7.80;99.90;;;;;;4974723;28;20900;-94
2020/12/20 05:26:27;;;;;;;9.40;8.50;;;7.90;99.90;;;;;;4977121;28;21048;-94
2020/12/20 05:29:07;;;;;;;9.67;8.67;;;7.80;99.90;;;;;;4985217;28;20429;-95
2020/12/20 05:31:33;;;;;;;12.17;9.00;;;7.80;99.90;;;;;;4989612;28;20496;-93
2020/12/20 05:33:59;;;;;;;9.83;8.57;;;7.80;99.90;;;;;;4980764;28;20456;-94
2020/12/20 05:36:27;;;;;;;9.83;8.83;;;7.80;99.90;;;;;;4984163;28;20460;-93
2020/12/20 05:38:53;;;;;;;9.43;8.43;;;7.80;99.90;;;;;;4984529;28;20460;-93
2020/12/20 05:41:29;;;;;;;10.97;9.77;;;7.80;99.90;;;;;;4976305;28;20488;-95
2020/12/20 05:44:16;;;;;;;9.57;8.67;;;7.70;99.90;;;;;;4974246;28;20471;-93
2020/12/20 05:46:43;;;;;;;9.40;8.30;;;7.80;99.90;;;;;;4973982;28;20535;-94
2020/12/20 05:49:16;;;;;;;9.00;8.10;;;7.90;99.90;;;;;;4974226;28;20439;-93
2020/12/20 05:52:06;;;;;;;11.30;9.27;;;7.90;99.90;;;;;;4977341;28;20476;-93
2020/12/20 05:54:33;;;;;;;9.30;8.40;;;7.90;99.90;;;;;;4977210;28;20981;-94
2020/12/20 05:57:13;;;;;;;12.37;8.07;;;7.80;99.90;;;;;;4977493;28;20463;-95
2020/12/20 05:59:43;;;;;;;9.33;8.00;;;7.80;99.90;;;;;;4977167;28;20468;-94
2020/12/20 06:02:10;;;;;;;8.43;7.53;;;7.80;99.90;;;;;;4977605;28;21043;-93
2020/12/20 06:04:37;;;;;;;11.67;9.07;;;7.70;99.90;;;;;;4977419;28;20510;-94
2020/12/20 06:07:07;;;;;;;11.13;8.97;;;7.70;99.90;;;;;;4977400;28;20448;-94
2020/12/20 06:09:42;;;;;;;9.60;8.53;;;7.60;99.90;;;;;;4977723;28;20444;-94
2020/12/20 06:12:11;;;;;;;8.50;7.80;;;7.60;99.90;;;;;;4977212;28;20502;-93
2020/12/20 06:14:45;;;;;;;9.00;8.10;;;7.60;99.90;;;;;;4976726;28;20902;-93
2020/12/20 06:17:16;;;;;;;9.70;8.33;;;7.60;99.90;;;;;;4977067;28;20408;-93
2020/12/20 06:19:49;;;;;;;9.40;8.50;;;7.60;99.90;;;;;;4977544;28;20483;-94
2020/12/20 06:22:19;;;;;;;8.20;7.20;;;7.70;99.90;;;;;;4977421;28;20483;-93
2020/12/20 06:24:47;;;;;;;8.03;7.23;;;7.70;99.90;;;;;;4978362;28;20451;-94
2020/12/20 06:27:15;;;;;;;9.47;7.47;;;7.70;99.90;;;;;;4977856;28;20459;-93
2020/12/20 06:29:45;;;;;;;9.60;7.30;;;7.70;99.90;;;;;;4979756;28;20816;-93
2020/12/20 06:32:15;;;;;;;9.00;7.97;;;7.70;99.90;;;;;;4976823;28;20527;-94
2020/12/20 06:34:42;;;;;;;8.90;8.00;;;7.60;99.90;;;;;;4977071;28;20483;-93
2020/12/20 06:37:10;;;;;;;8.07;7.33;;;7.60;99.90;;;;;;4976797;28;20460;-95
2020/12/20 06:39:37;;;;;;;9.10;8.30;;;7.60;99.90;;;;;;4976710;28;20518;-94
2020/12/20 06:42:04;;;;;;;9.37;7.90;;;7.60;99.90;;;;;;4976301;28;20476;-95
2020/12/20 06:44:30;;;;;;;8.57;7.67;;;7.60;99.90;;;;;;4976444;28;21000;-95
2020/12/20 06:46:57;;;;;;;8.83;7.40;;;7.60;99.90;;;;;;4975818;28;20455;-94
2020/12/20 06:49:35;;;;;;;8.63;7.80;;;7.60;99.90;;;;;;4976624;28;20428;-94
2020/12/20 06:52:20;;;;;;;8.60;7.70;;;7.60;99.90;;;;;;4976428;28;21212;-93
2020/12/20 06:55:04;;;;;;;9.23;8.33;;;7.60;99.90;;;;;;4975845;28;20459;-93
2020/12/20 06:57:31;;;;;;;9.33;8.40;;;7.60;99.90;;;;;;4977602;28;20456;-93
2020/12/20 06:59:57;;;;;;;8.30;7.50;;;7.60;99.90;;;;;;4976717;28;20475;-95
2020/12/20 07:02:44;;;;;;;7.60;7.00;;;7.60;99.90;;;;;;4975687;28;20459;-89
2020/12/20 07:05:39;;;;;;;8.23;7.07;;;7.60;99.90;;;;;;4974725;28;20993;-89
2020/12/20 07:08:09;;;;;;;8.17;7.40;;;7.60;99.90;;;;;;4955819;29;20492;-88
2020/12/20 07:10:41;;;;;;;7.90;7.10;;;7.60;99.90;;;;;;4956532;28;20997;-89
2020/12/20 07:13:09;;;;;;;9.50;8.60;;;7.60;99.90;;;;;;4974602;28;20444;-90
2020/12/20 07:15:52;;;;;;;9.20;7.70;;;7.60;99.90;;;;;;4974152;28;20491;-89
2020/12/20 07:18:41;;;;;;;8.83;7.93;;;7.60;99.90;;;;;;4974780;28;20471;-82
2020/12/20 07:21:09;;;;;;;8.20;7.40;;;7.60;99.90;;;;;;4974103;28;20487;-87
2020/12/20 07:23:38;;;;;;;8.30;7.50;;;7.60;99.90;;;;;;4974463;28;20447;-86
2020/12/20 07:26:05;;;;;;;9.40;8.60;;;7.60;99.90;;;;;;4973752;28;20455;-87
2020/12/20 07:28:31;;;;;;;8.20;6.83;;;7.60;99.90;;;;;;4974491;28;20448;-87
2020/12/20 07:30:57;;;;;;;8.53;7.73;;;7.60;99.90;;;;;;4973780;28;20480;-86
2020/12/20 07:33:23;;;;;;;9.53;7.70;;;7.60;99.90;;;;;;4974369;28;20451;-87
2020/12/20 07:35:50;;;;;;;8.70;7.90;;;7.60;99.90;;;;;;4974178;28;20443;-94
2020/12/20 07:38:17;;;;;;;9.40;8.50;;;7.60;99.90;;;;;;4981529;28;20460;-93
2020/12/20 07:40:43;;;;;;;8.43;7.63;;;7.60;99.90;;;;;;4990817;28;21008;-93
2020/12/20 07:43:10;;;;;;;8.40;7.60;;;7.70;99.90;;;;;;4997498;28;20440;-93
2020/12/20 07:45:36;;;;;;;10.70;8.17;;;7.60;99.90;;;;;;4986814;28;20949;-94
2020/12/20 07:48:02;;;;;;;8.67;7.87;;;7.70;99.90;;;;;;4975366;28;20823;-94
2020/12/20 07:50:28;;;;;;;9.10;7.77;;;7.70;99.90;;;;;;4974466;28;21007;-92
2020/12/20 07:52:55;;;;;;;9.70;8.70;;;7.70;99.90;;;;;;4974711;28;20436;-93
2020/12/20 07:55:21;;;;;;;7.50;6.67;;;7.70;99.90;;;;;;4974711;28;20878;-93
2020/12/20 07:57:48;;;;;;;9.27;8.37;;;7.80;99.90;;;;;;4975095;28;20511;-93
2020/12/20 08:00:16;;;;;;;8.90;7.80;;;7.80;99.90;;;;;;4975109;28;20496;-92
2020/12/20 08:02:42;;;;;;;8.67;7.70;;;7.90;99.90;;;;;;4974982;28;20803;-93
2020/12/20 08:05:12;;;;;;;8.73;7.80;;;7.90;99.90;;;;;;4974562;28;20968;-92
2020/12/20 08:07:39;;;;;;;8.37;7.47;;;8.00;99.90;;;;;;4974829;28;20452;-95
2020/12/20 08:10:06;;;;;;;9.27;8.30;;;8.00;99.90;;;;;;4981094;28;20979;-92
2020/12/20 08:12:33;;;;;;;8.80;7.90;;;8.00;99.90;;;;;;4974539;28;20511;-93
2020/12/20 08:15:05;;;;;;;8.57;7.77;;;8.00;99.90;;;;;;4975599;28;20458;-93
2020/12/20 08:17:31;;;;;;;9.93;8.77;;;8.00;99.90;;;;;;4976752;28;20487;-93
2020/12/20 08:20:01;;;;;;;9.13;8.23;;;8.00;99.90;;;;;;4974294;28;20480;-94
2020/12/20 08:22:29;;;;;;;9.90;8.50;;;8.00;99.90;;;;;;4974805;28;20487;-93
2020/12/20 08:24:56;;;;;;;9.03;8.13;;;8.00;99.90;;;;;;4973709;28;20452;-93
2020/12/20 08:27:25;;;;;;;8.53;7.57;;;8.00;99.90;;;;;;4968762;28;20471;-94
2020/12/20 08:29:54;;;;;;;9.33;7.90;;;8.00;99.90;;;;;;4976897;28;20448;-90
2020/12/20 08:32:45;;;;;;;8.97;8.00;;;8.00;99.90;;;;;;4973997;28;20535;-93
2020/12/20 08:35:14;;;;;;;8.80;7.90;;;8.00;99.90;;;;;;4975714;28;21000;-92
2020/12/20 08:37:40;;;;;;;9.43;8.53;;;8.00;99.90;;;;;;4974457;28;20460;-92
2020/12/20 08:40:09;;;;;;;8.60;7.80;;;8.00;99.90;;;;;;4978899;28;20479;-94
2020/12/20 08:42:36;;;;;;;9.47;8.07;;;8.00;99.90;;;;;;4967422;28;20444;-94
2020/12/20 08:45:12;;;;;;;8.20;7.40;;;8.00;99.90;;;;;;4988580;28;20455;-93
2020/12/20 08:47:38;;;;;;;9.33;8.40;;;8.00;99.90;;;;;;4985792;28;20474;-94
2020/12/20 08:50:05;;;;;;;8.73;7.93;;;8.10;99.90;;;;;;4988057;28;20444;-93
2020/12/20 08:52:31;;;;;;;10.30;9.30;;;8.10;99.90;;;;;;4974125;28;20488;-93
2020/12/20 08:55:00;;;;;;;8.97;8.07;;;8.20;99.90;;;;;;4974132;28;20468;-93
2020/12/20 08:57:28;;;;;;;7.63;7.00;;;8.20;99.90;;;;;;4974235;28;20459;-94
2020/12/20 09:00:06;;;;;;;8.40;7.60;;;8.20;99.90;;;;;;4986205;28;20474;-94
2020/12/20 09:02:32;;;;;;;8.83;7.93;;;8.30;99.80;;;;;;4977183;28;20456;-93
2020/12/20 09:05:00;;;;;;;8.73;7.97;;;8.40;99.70;;;;;;4983835;28;20455;-94
2020/12/20 09:07:37;;;;;;;9.50;8.53;;;8.40;99.60;;;;;;4996434;28;20440;-92
2020/12/20 09:10:06;;;;;;;9.77;8.07;;;8.30;99.60;;;;;;4960415;28;20458;-93
2020/12/20 09:12:32;;;;;;;10.30;9.50;;;8.30;99.80;;;;;;4973590;28;20459;-93
2020/12/20 09:15:01;;;;;;;8.77;7.97;;;8.40;99.70;;;;;;4985832;28;20447;-93
2020/12/20 09:17:32;;;;;;;11.40;8.70;;;8.60;99.40;;;;;;4982652;28;20448;-93
2020/12/20 09:19:58;;;;;;;9.07;8.27;;;8.60;99.40;;;;;;4984266;28;20476;-95
2020/12/20 09:22:42;;;;;;;9.10;8.20;;;8.90;99.20;;;;;;4983804;28;20875;-94
2020/12/20 09:25:08;;;;;;;10.00;9.00;;;9.30;98.80;;;;;;4976699;28;20940;-94
2020/12/20 09:27:34;;;;;;;9.17;8.27;;;9.30;98.20;;;;;;4989866;28;20451;-95
2020/12/20 09:30:02;;;;;;;9.17;8.37;;;9.50;98.20;;;;;;4977636;28;20470;-95
2020/12/20 09:32:39;;;;;;;9.47;8.47;;;9.70;97.90;;;;;;4978165;28;20451;-95
2020/12/20 09:35:07;;;;;;;9.23;8.30;;;10.00;96.80;;;;;;4980526;28;20456;-94
2020/12/20 09:37:40;;;;;;;11.27;10.27;;;10.30;96.40;;;;;;5003774;28;20440;-95
2020/12/20 09:40:08;;;;;;;9.40;8.60;;;10.70;95.90;;;;;;4998986;28;20470;-96
2020/12/20 09:42:39;;;;;;;9.47;8.50;;;10.70;95.30;;;;;;4989933;28;20459;-96
2020/12/20 09:45:08;;;;;;;10.07;9.13;;;10.80;95.10;;;;;;4996484;28;20519;-95
2020/12/20 09:47:39;;;;;;;8.93;8.03;;;10.90;94.90;;;;;;4982328;28;20975;-96
2020/12/20 09:50:07;;;;;;;9.67;8.80;;;11.00;94.60;;;;;;4985788;28;20541;-96
2020/12/20 09:52:34;;;;;;;9.13;8.27;;;11.10;94.20;;;;;;4988974;28;20455;-95
2020/12/20 09:55:00;;;;;;;9.47;8.60;;;11.30;93.90;;;;;;4993908;28;20455;-95
2020/12/20 09:57:26;;;;;;;8.70;7.83;;;11.40;93.50;;;;;;5006054;28;20454;-95
2020/12/20 09:59:53;;;;;;;10.33;8.63;;;11.40;93.40;;;;;;4999266;28;20476;-94
2020/12/20 10:02:20;;;;;;;9.27;8.50;;;11.50;93.30;;;;;;5003720;28;20440;-94
2020/12/20 10:04:46;;;;;;;15.30;8.50;;;11.40;93.20;;;;;;4994099;28;20473;-92
2020/12/20 10:07:12;;;;;;;10.10;9.10;;;11.40;93.00;;;;;;4984891;28;20948;-94
2020/12/20 10:09:38;;;;;;;9.10;8.30;;;11.50;92.90;;;;;;4977818;28;20432;-93
2020/12/20 10:12:05;;;;;;;10.23;9.33;;;11.50;93.20;;;;;;4981537;28;20476;-92
2020/12/20 10:14:32;;;;;;;9.43;8.63;;;11.20;93.00;;;;;;4989361;28;20839;-93
2020/12/20 10:16:58;;;;;;;9.20;8.40;;;10.90;93.60;;;;;;4991195;28;20494;-94
2020/12/20 10:19:25;;;;;;;9.60;8.70;;;10.80;93.90;;;;;;4986151;28;20462;-92
2020/12/20 10:21:53;;;;;;;9.13;8.33;;;10.90;93.90;;;;;;4989114;28;20511;-95
2020/12/20 10:24:20;;;;;;;10.97;9.93;;;10.80;93.90;;;;;;4986230;28;20431;-87
2020/12/20 10:26:47;;;;;;;9.03;8.13;;;10.70;93.90;;;;;;4983485;28;20471;-94
2020/12/20 10:29:15;;;;;;;9.00;8.20;;;10.60;94.20;;;;;;4977695;28;20439;-94
2020/12/20 10:31:43;;;;;;;10.50;9.40;;;10.40;94.60;;;;;;4972652;28;20466;-95
2020/12/20 10:34:09;;;;;;;10.83;9.93;;;10.30;94.90;;;;;;4994389;28;20435;-93
2020/12/20 10:36:37;;;;;;;9.00;8.17;;;10.30;94.90;;;;;;4995041;28;20932;-94
2020/12/20 10:39:05;;;;;;;11.10;9.00;;;10.20;95.10;;;;;;4998128;28;20476;-94
2020/12/20 10:41:35;;;;;;;12.20;11.10;;;10.30;95.20;;;;;;4996342;28;20479;-93
2020/12/20 10:44:01;;;;;;;10.27;9.37;;;10.30;95.20;;;;;;4986593;28;20417;-93
2020/12/20 10:46:28;;;;;;;10.20;9.30;;;10.30;95.30;;;;;;4984710;28;20462;-94
2020/12/20 10:48:55;;;;;;;10.13;9.23;;;10.30;95.30;;;;;;4992287;28;20480;-93
2020/12/20 10:51:21;;;;;;;10.87;9.77;;;10.30;95.40;;;;;;4989214;28;20999;-90
2020/12/20 10:53:50;;;;;;;10.40;9.40;;;10.30;95.00;;;;;;4988049;28;20475;-89
2020/12/20 10:56:18;;;;;;;9.37;8.57;;;10.20;95.20;;;;;;4984098;28;20460;-89
2020/12/20 10:58:44;;;;;;;9.23;8.40;;;10.20;95.30;;;;;;4984357;28;20436;-90
2020/12/20 11:01:14;;;;;;;9.57;8.57;;;10.10;95.40;;;;;;4984973;28;20476;-88
2020/12/20 11:03:42;;;;;;;10.13;9.10;;;10.10;95.70;;;;;;4984879;28;20527;-89
2020/12/20 11:06:08;;;;;;;9.70;8.80;;;10.10;95.70;;;;;;4986452;28;20441;-88
2020/12/20 11:08:34;;;;;;;10.70;9.70;;;10.20;96.10;;;;;;4980716;28;20448;-87
2020/12/20 11:11:01;;;;;;;10.63;9.07;;;10.30;95.80;;;;;;4977568;28;20464;-90
2020/12/20 11:13:28;;;;;;;9.57;8.57;;;10.40;95.70;;;;;;4977030;28;20454;-87
2020/12/20 11:15:54;;;;;;;9.63;8.70;;;10.50;95.70;;;;;;4977384;28;20459;-91
2020/12/20 11:18:20;;;;;;;9.07;8.20;;;10.70;95.50;;;;;;4978622;28;20545;-90
2020/12/20 11:20:46;;;;;;;10.47;9.37;;;10.90;95.30;;;;;;4984495;28;20541;-91
2020/12/20 11:23:13;;;;;;;9.57;8.77;;;11.30;95.10;;;;;;4979507;28;20463;-91
2020/12/20 11:25:39;;;;;;;10.33;9.23;;;11.60;94.20;;;;;;4984737;28;20455;-91
2020/12/20 11:28:06;;;;;;;10.57;9.30;;;11.80;94.00;;;;;;4985933;28;20432;-91
2020/12/20 11:30:32;;;;;;;8.60;7.80;;;11.90;93.50;;;;;;4984626;28;20460;-91
2020/12/20 11:32:58;;;;;;;9.80;8.90;;;12.10;93.20;;;;;;4982419;28;20461;-92
2020/12/20 11:35:25;;;;;;;10.30;9.40;;;12.00;92.70;;;;;;4982097;28;20453;-91
2020/12/20 11:37:51;;;;;;;9.60;8.80;;;11.90;92.90;;;;;;4985143;28;20449;-90
2020/12/20 11:40:17;;;;;;;10.60;9.57;;;11.70;93.10;;;;;;4981285;28;20483;-90
2020/12/20 11:42:43;;;;;;;10.67;9.77;;;11.70;93.20;;;;;;4982565;28;20443;-90
2020/12/20 11:45:15;;;;;;;10.00;9.00;;;11.70;93.20;;;;;;4983748;28;20443;-91
2020/12/20 11:47:42;;;;;;;11.10;10.00;;;11.70;93.30;;;;;;4984510;28;20796;-91
2020/12/20 11:50:10;;;;;;;11.37;9.10;;;11.80;93.30;;;;;;4982507;28;20520;-91
2020/12/20 11:52:37;;;;;;;9.73;8.83;;;11.80;93.20;;;;;;4982036;28;20451;-91
2020/12/20 11:55:05;;;;;;;9.57;8.60;;;11.70;93.30;;;;;;4982177;28;20468;-91
2020/12/20 11:57:32;;;;;;;9.47;8.57;;;11.80;93.20;;;;;;4982929;28;20431;-91
2020/12/20 11:59:58;;;;;;;10.43;9.40;;;12.10;93.10;;;;;;4983931;28;20479;-91
2020/12/20 12:02:25;;;;;;;9.70;8.80;;;12.10;92.80;;;;;;4983524;28;20503;-92
2020/12/20 12:04:52;;;;;;;9.60;8.70;;;12.10;92.80;;;;;;4981867;28;20457;-92
2020/12/20 12:07:22;;;;;;;9.80;8.80;;;12.00;92.70;;;;;;4981348;28;20534;-91
2020/12/20 12:09:49;;;;;;;10.20;9.20;;;12.00;92.60;;;;;;4982559;28;20455;-90
2020/12/20 12:12:15;;;;;;;9.80;8.90;;;12.10;92.60;;;;;;4985224;28;20458;-91
2020/12/20 12:14:44;;;;;;;10.80;8.63;;;12.20;92.70;;;;;;4979780;28;20450;-92
2020/12/20 12:17:11;;;;;;;15.03;12.53;;;12.40;92.60;;;;;;4990044;28;20455;-91
2020/12/20 12:19:38;;;;;;;19.43;14.80;;;12.50;92.20;;;;;;5003073;28;20449;-90
2020/12/20 12:22:04;;;;;;;10.00;9.13;;;12.60;91.90;;;;;;4993176;28;20533;-90
2020/12/20 12:24:30;;;;;;;11.30;10.23;;;12.80;91.60;;;;;;4981878;28;20957;-90
2020/12/20 12:27:04;;;;;;;12.40;10.13;;;12.90;91.70;;;;;;4986031;28;20799;-91
2020/12/20 12:29:34;;;;;;;12.10;8.80;;;13.00;91.50;;;;;;4989730;28;20448;-90
2020/12/20 12:32:05;;;;;;;9.93;8.97;;;13.10;91.40;;;;;;4986007;28;20552;-90
2020/12/20 12:34:32;;;;;;;9.50;8.70;;;13.00;91.20;;;;;;4981713;28;20822;-93
2020/12/20 12:37:06;;;;;;;9.53;8.67;;;13.10;91.10;;;;;;4983745;28;20454;-92
2020/12/20 12:40:35;;;;;;;9.40;8.57;;;13.10;91.10;;;;;;4985807;28;20515;-92
2020/12/20 12:43:09;;;;;;;9.33;8.40;;;13.00;91.00;;;;;;4888695;29;20463;-93
2020/12/20 12:46:03;;;;;;;11.23;10.13;;;12.70;91.30;;;;;;4948440;28;20488;-88
2020/12/20 12:48:53;;;;;;;9.90;9.00;;;12.60;91.40;;;;;;4978969;28;20455;-91
2020/12/20 12:51:30;;;;;;;9.90;8.90;;;12.50;91.90;;;;;;4986050;28;20460;-93
2020/12/20 12:54:17;;;;;;;12.80;10.43;;;12.40;92.10;;;;;;4983939;28;20558;-91
2020/12/20 13:02:33;;;;;;;10.47;9.27;;;12.30;92.30;;;;;;5045257;22;20493;-89
2020/12/20 13:05:05;;;;;;;9.20;8.30;;;12.20;92.30;;;;;;5036775;28;20446;-91